Time;durP1;ratioP1;P1;durP2;ratioP2;P2;SDS_P1;SDS_P2;PMS_P1;PMS_P2;Temp;Humidity;BMP_temperature;BMP_pressure;BME280_temperature;BME280_humidity;BME280_pressure;Samples;Min_cycle;Max_cycle;Signal;HPM_P1;HPM_P2
2024/01/10 00:01:16;;;;;;;5.37;3.13;;;;;;;-2.35;55.05;95913.88;5074395;28;20239;-74
2024/01/10 00:03:42;;;;;;;4.23;3.07;;;;;;;-2.37;55.39;95915.63;5075856;28;20226;-76
2024/01/10 00:06:08;;;;;;;3.87;3.00;;;;;;;-2.29;55.18;95918.78;5074790;28;20246;-75
2024/01/10 00:08:33;;;;;;;4.33;3.00;;;;;;;-2.13;54.81;95916.53;5077958;28;20224;-73
2024/01/10 00:10:59;;;;;;;4.17;2.97;;;;;;;-2.24;54.35;95923.81;5076445;28;20188;-73
2024/01/10 00:13:35;;;;;;;5.00;2.80;;;;;;;-2.75;55.40;95924.63;5072801;28;20220;-74
2024/01/10 00:16:01;;;;;;;3.77;3.10;;;;;;;-2.54;55.08;95923.06;5073364;28;20227;-73
2024/01/10 00:18:26;;;;;;;4.07;2.93;;;;;;;-2.41;54.90;95926.09;5074702;28;20220;-74
2024/01/10 00:20:55;;;;;;;2.97;2.50;;;;;;;-2.37;54.48;95933.66;5072332;28;20221;-74
2024/01/10 00:23:21;;;;;;;4.73;2.93;;;;;;;-2.28;54.95;95929.94;5072246;28;20273;-74
2024/01/10 00:25:47;;;;;;;5.03;3.20;;;;;;;-2.36;54.97;95931.94;5074059;28;20188;-74
2024/01/10 00:28:12;;;;;;;3.07;2.70;;;;;;;-2.44;55.38;95938.16;5071121;28;20278;-74
2024/01/10 00:30:38;;;;;;;4.27;3.03;;;;;;;-2.45;55.15;95936.50;5071404;28;20220;-74
2024/01/10 00:33:04;;;;;;;3.87;3.03;;;;;;;-2.27;54.84;95941.94;5070934;28;20228;-74
2024/01/10 00:35:29;;;;;;;3.70;3.07;;;;;;;-2.22;54.11;95935.75;5075099;28;20217;-74
2024/01/10 00:37:55;;;;;;;3.70;2.90;;;;;;;-2.50;54.76;95940.13;5076366;28;20311;-74
2024/01/10 00:40:20;;;;;;;4.73;3.07;;;;;;;-2.32;54.76;95939.50;5076143;28;20227;-74
2024/01/10 00:42:47;;;;;;;3.53;2.93;;;;;;;-2.37;54.76;95936.25;5073186;28;20231;-76
2024/01/10 00:45:12;;;;;;;3.73;2.83;;;;;;;-2.33;55.21;95937.81;5073768;28;20247;-75
2024/01/10 00:47:38;;;;;;;5.27;3.13;;;;;;;-2.27;55.07;95937.63;5071786;28;20229;-75
2024/01/10 00:50:04;;;;;;;3.67;3.10;;;;;;;-2.49;55.55;95932.31;5079169;28;20272;-73
2024/01/10 00:52:29;;;;;;;3.00;2.70;;;;;;;-2.39;55.19;95940.59;5072392;28;20539;-73
2024/01/10 00:54:54;;;;;;;4.20;2.73;;;;;;;-2.38;54.34;95931.97;5074287;28;20216;-75
2024/01/10 00:57:20;;;;;;;4.20;2.83;;;;;;;-2.42;55.25;95942.44;5072099;28;20309;-74
2024/01/10 00:59:56;;;;;;;3.60;3.23;;;;;;;-2.48;54.89;95940.91;5070026;28;20227;-74
2024/01/10 01:02:21;;;;;;;2.93;2.63;;;;;;;-2.40;54.66;95940.66;5071402;28;20188;-75
2024/01/10 01:04:46;;;;;;;4.47;3.37;;;;;;;-2.52;54.34;95937.56;5075869;28;20213;-74
2024/01/10 01:07:12;;;;;;;3.77;3.10;;;;;;;-2.69;55.18;95940.72;5075591;28;20230;-74
2024/01/10 01:09:37;;;;;;;4.17;2.77;;;;;;;-2.53;54.60;95940.22;5070998;28;20217;-74
2024/01/10 01:12:03;;;;;;;4.43;2.80;;;;;;;-2.66;55.09;95929.47;5075779;28;20235;-74
2024/01/10 01:14:28;;;;;;;3.20;2.90;;;;;;;-2.52;55.19;95937.56;5068977;28;20235;-73
2024/01/10 01:16:54;;;;;;;4.93;3.00;;;;;;;-2.40;54.62;95933.78;5072292;28;20192;-74
2024/01/10 01:19:19;;;;;;;4.30;2.83;;;;;;;-2.35;54.63;95925.88;5070125;28;20224;-74
2024/01/10 01:21:45;;;;;;;3.27;2.70;;;;;;;-2.39;55.54;95926.88;5069093;28;20224;-74
2024/01/10 01:24:11;;;;;;;4.50;3.37;;;;;;;-2.50;54.79;95928.06;5070008;28;20329;-75
2024/01/10 01:26:36;;;;;;;3.93;2.90;;;;;;;-2.34;54.43;95927.56;5071095;28;20317;-75
2024/01/10 01:29:02;;;;;;;3.97;3.03;;;;;;;-2.39;54.22;95924.31;5069976;28;20181;-75
2024/01/10 01:31:27;;;;;;;4.70;3.10;;;;;;;-2.32;54.10;95924.06;5071320;28;20255;-75
2024/01/10 01:33:52;;;;;;;2.93;2.60;;;;;;;-2.38;54.44;95924.25;5072420;28;20303;-75
2024/01/10 01:36:18;;;;;;;3.93;2.90;;;;;;;-2.41;54.24;95916.63;5075357;28;20220;-74
2024/01/10 01:38:43;;;;;;;3.37;2.97;;;;;;;-2.37;53.98;95915.63;5081796;28;20224;-74
2024/01/10 01:41:09;;;;;;;5.30;3.30;;;;;;;-2.51;54.27;95918.69;5069864;28;20200;-74
2024/01/10 01:43:35;;;;;;;4.03;3.30;;;;;;;-2.53;54.86;95929.91;5068290;28;20213;-75
2024/01/10 01:46:16;;;;;;;6.13;3.07;;;;;;;-2.71;55.21;95919.31;5074661;28;20225;-73
2024/01/10 01:48:41;;;;;;;4.27;3.13;;;;;;;-2.59;54.83;95915.53;5080929;28;20338;-74
2024/01/10 01:51:09;;;;;;;4.90;3.40;;;;;;;-2.69;55.35;95922.69;5070101;28;20291;-73
2024/01/10 01:53:35;;;;;;;3.57;3.13;;;;;;;-2.62;55.11;95919.91;5052203;28;20247;-73
2024/01/10 01:56:05;;;;;;;4.60;3.50;;;;;;;-2.58;55.30;95918.94;5060554;28;20255;-76
2024/01/10 01:58:31;;;;;;;4.53;3.73;;;;;;;-2.42;54.58;95911.53;5082133;28;20316;-76
2024/01/10 02:00:56;;;;;;;4.47;3.67;;;;;;;-2.45;54.60;95908.16;5070762;28;20303;-74
2024/01/10 02:03:22;;;;;;;4.87;3.40;;;;;;;-2.45;54.49;95907.34;5062827;28;20314;-75
2024/01/10 02:05:47;;;;;;;3.50;3.20;;;;;;;-2.49;54.73;95904.00;5082026;28;20225;-75
2024/01/10 02:08:13;;;;;;;4.20;3.80;;;;;;;-2.54;55.03;95905.03;5071046;28;20242;-74
2024/01/10 02:10:39;;;;;;;5.27;3.63;;;;;;;-2.63;55.28;95898.47;5071483;28;20193;-74
2024/01/10 02:13:05;;;;;;;4.77;3.67;;;;;;;-2.56;55.19;95893.97;5069783;28;20216;-77
2024/01/10 02:15:31;;;;;;;4.17;3.60;;;;;;;-2.52;55.00;95898.13;5062044;28;20224;-75
2024/01/10 02:17:56;;;;;;;4.33;3.77;;;;;;;-2.44;55.12;95890.97;5075277;28;20237;-74
2024/01/10 02:20:22;;;;;;;5.20;3.97;;;;;;;-2.35;55.38;95893.25;5069423;28;20186;-75
2024/01/10 02:22:50;;;;;;;7.17;3.43;;;;;;;-2.44;55.22;95896.13;5065876;28;20189;-74
2024/01/10 02:25:15;;;;;;;5.40;3.50;;;;;;;-2.43;54.75;95895.25;5070629;28;20242;-73
2024/01/10 02:27:41;;;;;;;4.23;3.53;;;;;;;-2.45;54.97;95897.03;5063557;28;20229;-73
2024/01/10 02:30:08;;;;;;;6.27;3.77;;;;;;;-2.49;54.85;95900.59;5073019;28;20233;-75
2024/01/10 02:32:35;;;;;;;3.93;3.53;;;;;;;-2.59;55.23;95902.66;5071198;28;20298;-74
2024/01/10 02:35:01;;;;;;;4.70;4.20;;;;;;;-2.56;55.10;95894.81;5070589;28;20192;-75
2024/01/10 02:37:26;;;;;;;4.80;4.03;;;;;;;-2.39;54.56;95901.97;5070355;28;20232;-75
2024/01/10 02:39:51;;;;;;;4.43;3.93;;;;;;;-2.38;54.96;95890.75;5067302;28;20221;-75
2024/01/10 02:42:17;;;;;;;7.00;4.10;;;;;;;-2.47;54.83;95893.66;5064396;28;20285;-74
2024/01/10 02:44:43;;;;;;;4.70;4.20;;;;;;;-2.48;54.25;95899.72;5075499;28;20224;-74
2024/01/10 02:47:09;;;;;;;5.07;4.57;;;;;;;-2.48;54.98;95899.72;5071216;28;20198;-75
2024/01/10 02:49:34;;;;;;;6.57;4.43;;;;;;;-2.54;55.01;95898.19;5073959;28;20311;-74
2024/01/10 02:52:00;;;;;;;8.10;5.00;;;;;;;-2.66;55.17;95896.00;5070342;28;20247;-74
2024/01/10 02:54:25;;;;;;;5.20;4.70;;;;;;;-2.63;54.93;95901.06;5075115;28;20266;-74
2024/01/10 02:56:51;;;;;;;6.17;5.13;;;;;;;-2.71;54.93;95909.03;5071026;28;20252;-74
2024/01/10 02:59:17;;;;;;;5.90;4.77;;;;;;;-2.84;54.80;95902.59;5070774;28;20185;-73
2024/01/10 03:01:42;;;;;;;5.57;4.87;;;;;;;-2.75;55.23;95904.88;5075560;28;20297;-74
2024/01/10 03:04:08;;;;;;;6.77;5.17;;;;;;;-2.79;54.91;95903.28;5073415;28;20244;-75
2024/01/10 03:06:33;;;;;;;6.03;4.80;;;;;;;-2.68;54.88;95903.75;5060699;28;20213;-74
2024/01/10 03:08:58;;;;;;;7.00;5.43;;;;;;;-2.64;54.90;95895.97;5071412;28;20231;-74
2024/01/10 03:11:24;;;;;;;6.37;4.67;;;;;;;-2.86;55.59;95894.09;5070474;28;20245;-74
2024/01/10 03:13:52;;;;;;;6.80;4.53;;;;;;;-2.75;55.43;95894.59;5071947;28;20193;-73
2024/01/10 03:16:18;;;;;;;6.27;4.73;;;;;;;-2.92;55.36;95897.69;5059514;28;20238;-74
2024/01/10 03:18:49;;;;;;;5.30;4.30;;;;;;;-2.85;55.35;95900.91;5071615;28;20267;-73
2024/01/10 03:21:14;;;;;;;7.67;4.60;;;;;;;-2.95;55.87;95900.34;5067760;28;20220;-74
2024/01/10 03:23:39;;;;;;;8.40;5.87;;;;;;;-3.18;57.07;95898.50;5072660;28;20225;-74
2024/01/10 03:26:05;;;;;;;10.80;6.13;;;;;;;-2.98;56.73;95900.44;5070937;28;20181;-74
2024/01/10 03:28:30;;;;;;;10.33;6.27;;;;;;;-2.80;55.85;95909.31;5070774;28;20304;-74
2024/01/10 03:30:56;;;;;;;8.73;6.40;;;;;;;-2.79;56.02;95913.56;5066426;28;20225;-74
2024/01/10 03:33:21;;;;;;;7.03;5.10;;;;;;;-2.95;56.32;95912.38;5064053;28;20212;-74
2024/01/10 03:35:46;;;;;;;7.33;4.53;;;;;;;-2.77;55.90;95916.94;5072439;28;20216;-73
2024/01/10 03:38:12;;;;;;;6.23;4.50;;;;;;;-2.88;55.77;95908.72;5068943;28;20248;-74
2024/01/10 03:40:37;;;;;;;7.60;4.47;;;;;;;-2.72;55.71;95906.50;5075922;28;20239;-76
2024/01/10 03:43:03;;;;;;;4.90;3.67;;;;;;;-2.69;55.90;95899.53;5069415;28;20220;-75
2024/01/10 03:45:29;;;;;;;6.50;4.00;;;;;;;-2.59;55.30;95904.34;5072016;28;20232;-76
2024/01/10 03:47:55;;;;;;;5.37;3.63;;;;;;;-2.71;55.15;95903.88;5071537;28;20228;-74
2024/01/10 03:50:20;;;;;;;6.27;4.13;;;;;;;-2.75;55.72;95904.88;5079151;28;20197;-74
2024/01/10 03:52:46;;;;;;;4.93;3.63;;;;;;;-2.71;55.16;95911.59;5069802;28;20225;-74
2024/01/10 03:55:13;;;;;;;6.03;4.00;;;;;;;-2.71;55.62;95906.44;5072898;28;20220;-74
2024/01/10 03:57:44;;;;;;;5.47;3.73;;;;;;;-2.71;55.66;95914.16;5078340;28;20225;-73
2024/01/10 04:00:11;;;;;;;4.73;4.07;;;;;;;-2.76;55.13;95912.63;5072900;28;20225;-72
2024/01/10 04:02:40;;;;;;;6.13;3.83;;;;;;;-2.77;55.39;95911.81;5077936;28;20227;-73
2024/01/10 04:05:13;;;;;;;4.63;3.57;;;;;;;-2.83;55.57;95914.56;5074398;28;20212;-72
2024/01/10 04:07:42;;;;;;;5.70;3.53;;;;;;;-2.77;55.12;95919.53;5075189;28;20278;-71
2024/01/10 04:10:10;;;;;;;4.60;3.67;;;;;;;-2.74;55.02;95923.72;5073042;28;20239;-72
2024/01/10 04:12:37;;;;;;;4.40;3.17;;;;;;;-2.59;54.46;95919.81;5067413;28;20238;-72
2024/01/10 04:15:04;;;;;;;5.50;3.80;;;;;;;-2.63;54.50;95925.97;5074027;28;20220;-72
2024/01/10 04:17:29;;;;;;;5.20;3.50;;;;;;;-2.61;54.50;95922.44;5071950;28;20220;-72
2024/01/10 04:19:55;;;;;;;5.40;3.50;;;;;;;-2.44;53.82;95924.44;5074738;28;20200;-72
2024/01/10 04:22:20;;;;;;;4.53;3.23;;;;;;;-2.52;53.76;95926.44;5072694;28;20283;-72
2024/01/10 04:24:45;;;;;;;4.87;3.40;;;;;;;-2.61;53.80;95926.75;5075708;28;20224;-72
2024/01/10 04:27:11;;;;;;;6.87;3.57;;;;;;;-2.97;54.76;95917.56;5071946;28;20309;-72
2024/01/10 04:29:37;;;;;;;5.57;3.30;;;;;;;-2.64;54.51;95926.88;5077378;28;20246;-72
2024/01/10 04:32:03;;;;;;;5.77;3.70;;;;;;;-2.56;53.59;95933.44;5078016;28;20274;-72
2024/01/10 04:34:29;;;;;;;6.57;3.93;;;;;;;-2.60;54.44;95931.00;5072613;28;20219;-73
2024/01/10 04:36:54;;;;;;;6.53;3.63;;;;;;;-2.63;54.59;95943.97;5067778;28;20217;-72
2024/01/10 04:39:19;;;;;;;6.43;3.37;;;;;;;-2.66;54.14;95939.78;5071863;28;20303;-73
2024/01/10 04:41:45;;;;;;;5.43;3.67;;;;;;;-2.72;54.66;95940.81;5074306;28;20280;-72
2024/01/10 04:44:11;;;;;;;5.43;4.07;;;;;;;-2.76;54.70;95944.34;5080401;28;20196;-73
2024/01/10 04:46:40;;;;;;;5.40;3.70;;;;;;;-2.77;54.64;95939.28;5080135;28;20226;-72
2024/01/10 04:49:06;;;;;;;6.20;3.57;;;;;;;-2.54;54.08;95943.66;5060142;28;20213;-72
2024/01/10 04:51:32;;;;;;;5.30;3.23;;;;;;;-2.62;54.28;95945.66;5073454;28;20362;-73
2024/01/10 04:53:58;;;;;;;6.53;3.30;;;;;;;-2.62;54.15;95953.38;5071676;28;20237;-74
2024/01/10 04:56:25;;;;;;;4.10;3.33;;;;;;;-2.52;53.44;95958.19;5069396;28;20216;-71
2024/01/10 04:58:51;;;;;;;6.07;4.00;;;;;;;-2.72;53.85;95956.25;5067133;28;20222;-71
2024/01/10 05:01:17;;;;;;;7.23;4.50;;;;;;;-2.76;54.27;95954.66;5072154;28;20232;-72
2024/01/10 05:03:42;;;;;;;5.20;4.33;;;;;;;-2.56;54.20;95953.19;5055076;28;20231;-72
2024/01/10 05:06:08;;;;;;;5.30;4.07;;;;;;;-2.55;53.39;95953.13;5068798;28;20292;-72
2024/01/10 05:08:33;;;;;;;6.20;4.53;;;;;;;-2.58;53.26;95953.25;5072171;28;20225;-73
2024/01/10 05:10:59;;;;;;;5.13;4.23;;;;;;;-2.64;53.15;95947.47;5071257;28;20207;-72
2024/01/10 05:13:24;;;;;;;6.00;4.43;;;;;;;-2.76;53.61;95951.25;5075576;28;20213;-72
2024/01/10 05:15:49;;;;;;;4.93;3.97;;;;;;;-2.76;52.52;95961.53;5073123;28;20216;-73
2024/01/10 05:18:16;;;;;;;7.47;4.00;;;;;;;-2.85;52.92;95964.41;5071073;28;20231;-72
2024/01/10 05:20:41;;;;;;;5.77;4.23;;;;;;;-2.92;53.40;95956.03;5073717;28;20298;-71
2024/01/10 05:23:07;;;;;;;5.90;3.80;;;;;;;-2.79;52.53;95954.75;5067723;28;20209;-74
2024/01/10 05:25:32;;;;;;;5.10;4.03;;;;;;;-2.79;52.16;95962.47;5075603;28;20224;-72
2024/01/10 05:28:00;;;;;;;8.17;4.10;;;;;;;-2.72;51.93;95965.72;5076309;28;20284;-72
2024/01/10 05:30:25;;;;;;;4.70;3.93;;;;;;;-2.76;51.52;95962.38;5070132;28;20224;-73
2024/01/10 05:32:51;;;;;;;5.37;3.93;;;;;;;-2.72;52.22;95965.72;5074534;28;20229;-73
2024/01/10 05:35:16;;;;;;;4.73;3.80;;;;;;;-2.78;51.56;95966.75;5072758;28;20189;-73
2024/01/10 05:37:41;;;;;;;5.83;3.50;;;;;;;-2.52;50.42;95970.22;5068051;28;20189;-73
2024/01/10 05:40:07;;;;;;;6.43;4.00;;;;;;;-2.71;51.48;95973.38;5073953;28;20249;-72
2024/01/10 05:42:33;;;;;;;6.33;4.20;;;;;;;-2.60;51.22;95985.91;5063411;28;20216;-72
2024/01/10 05:45:00;;;;;;;5.60;4.43;;;;;;;-2.67;51.97;95974.97;5073959;28;20225;-73
2024/01/10 05:47:26;;;;;;;4.60;3.87;;;;;;;-2.64;51.23;95973.22;5072289;28;20188;-72
2024/01/10 05:49:52;;;;;;;7.43;4.17;;;;;;;-2.51;51.29;95974.50;5076000;28;20184;-72
2024/01/10 05:52:18;;;;;;;5.70;4.10;;;;;;;-2.67;51.09;95969.81;5070358;28;20224;-72
2024/01/10 05:54:44;;;;;;;4.50;3.80;;;;;;;-2.60;51.30;95970.47;5072988;28;20289;-71
2024/01/10 05:57:09;;;;;;;7.80;5.23;;;;;;;-2.80;51.83;95971.09;5070269;28;20224;-72
2024/01/10 05:59:35;;;;;;;6.47;4.00;;;;;;;-2.67;51.21;95977.56;5069262;28;20221;-73
2024/01/10 06:02:02;;;;;;;5.10;3.90;;;;;;;-2.71;51.00;95982.84;5070597;28;20497;-72
2024/01/10 06:04:30;;;;;;;5.83;4.50;;;;;;;-2.68;51.58;95981.00;5069624;28;20231;-72
2024/01/10 06:06:57;;;;;;;5.47;4.27;;;;;;;-2.67;51.78;95990.44;5075766;28;20294;-72
2024/01/10 06:09:22;;;;;;;5.77;4.53;;;;;;;-2.68;52.16;95983.56;5078353;28;20228;-75
2024/01/10 06:11:48;;;;;;;9.00;4.47;;;;;;;-2.51;51.62;95983.06;5073545;28;20220;-72
2024/01/10 06:14:14;;;;;;;5.80;4.50;;;;;;;-2.64;52.06;95993.81;5075438;28;20201;-73
2024/01/10 06:16:39;;;;;;;5.87;4.70;;;;;;;-2.53;52.05;96002.03;5071938;28;20185;-73
2024/01/10 06:19:06;;;;;;;5.07;4.53;;;;;;;-2.44;51.72;95999.16;5074964;28;20299;-73
2024/01/10 06:21:31;;;;;;;5.33;4.00;;;;;;;-2.42;52.02;95994.78;5068853;28;20224;-73
2024/01/10 06:23:57;;;;;;;6.10;5.30;;;;;;;-2.24;51.97;96001.94;5069583;28;20238;-75
2024/01/10 06:26:22;;;;;;;5.93;4.00;;;;;;;-2.16;51.67;96000.84;5071545;28;20209;-72
2024/01/10 06:28:48;;;;;;;6.53;4.73;;;;;;;-2.14;51.46;96004.19;5079438;28;20190;-72
2024/01/10 06:31:13;;;;;;;5.83;4.37;;;;;;;-2.21;51.49;96003.56;5072620;28;20225;-73
2024/01/10 06:33:39;;;;;;;7.10;4.03;;;;;;;-2.27;51.69;96014.06;5075951;28;20221;-73
2024/01/10 06:36:05;;;;;;;5.43;3.83;;;;;;;-2.33;51.87;96017.66;5055089;28;20227;-72
2024/01/10 06:38:30;;;;;;;5.57;3.77;;;;;;;-2.26;51.14;96011.44;5071270;28;20362;-71
2024/01/10 06:40:56;;;;;;;5.57;3.60;;;;;;;-2.46;51.39;96012.09;5069422;28;20218;-72
2024/01/10 06:43:21;;;;;;;5.53;3.83;;;;;;;-2.40;51.39;96011.03;5074975;28;20239;-71
2024/01/10 06:45:48;;;;;;;7.73;4.37;;;;;;;-2.28;51.75;96013.22;5068727;28;20248;-69
2024/01/10 06:48:14;;;;;;;4.40;3.67;;;;;;;-2.33;51.28;96009.94;5070898;28;20223;-70
2024/01/10 06:50:39;;;;;;;3.90;3.30;;;;;;;-2.54;51.06;96020.91;5074911;28;20228;-71
2024/01/10 06:53:05;;;;;;;5.20;3.30;;;;;;;-2.27;48.94;96024.38;5073616;28;20232;-70
2024/01/10 06:55:58;;;;;;;6.30;3.40;;;;;;;-2.60;50.71;96024.53;5072828;28;20220;-72
2024/01/10 06:58:24;;;;;;;11.00;3.97;;;;;;;-2.51;50.38;96031.16;5075053;28;20393;-71
2024/01/10 07:00:50;;;;;;;4.93;3.53;;;;;;;-2.37;50.35;96030.72;5072724;28;20307;-72
2024/01/10 07:03:15;;;;;;;5.80;3.23;;;;;;;-2.38;49.43;96029.00;5055566;28;20220;-71
2024/01/10 07:05:41;;;;;;;4.73;3.20;;;;;;;-2.30;49.25;96029.59;5071258;28;20231;-69
2024/01/10 07:08:06;;;;;;;4.67;3.50;;;;;;;-2.29;48.42;96029.56;5076801;28;20179;-72
2024/01/10 07:10:32;;;;;;;5.53;4.13;;;;;;;-2.35;47.73;96032.34;5069801;28;20216;-71
2024/01/10 07:12:57;;;;;;;3.93;3.10;;;;;;;-2.30;47.04;96027.91;5074217;28;20217;-70
2024/01/10 07:15:23;;;;;;;4.93;3.40;;;;;;;-2.25;46.48;96038.88;5068142;28;20224;-69
2024/01/10 07:17:49;;;;;;;3.93;2.80;;;;;;;-2.27;45.58;96037.25;5070369;28;20221;-71
2024/01/10 07:20:14;;;;;;;3.90;2.80;;;;;;;-2.40;45.45;96044.53;5071416;28;20184;-70
2024/01/10 07:22:43;;;;;;;4.43;3.37;;;;;;;-2.14;46.48;96035.94;5072745;28;20300;-73
2024/01/10 07:25:13;;;;;;;4.87;3.33;;;;;;;-1.87;46.41;96038.50;5076713;28;20217;-71
2024/01/10 07:27:40;;;;;;;5.00;3.60;;;;;;;-2.00;45.50;96040.66;5067672;28;20291;-71
2024/01/10 07:30:13;;;;;;;4.87;3.73;;;;;;;-1.83;44.50;96060.72;5058495;28;20342;-70
2024/01/10 07:32:46;;;;;;;7.80;4.13;;;;;;;-1.63;43.87;96060.91;5062577;28;20230;-72
2024/01/10 07:35:13;;;;;;;7.57;4.10;;;;;;;-1.74;44.67;96054.41;5070829;28;20209;-73
2024/01/10 07:37:40;;;;;;;9.57;4.40;;;;;;;-1.51;44.58;96057.03;5071986;28;20226;-72
2024/01/10 07:40:10;;;;;;;7.53;4.80;;;;;;;-1.48;43.24;96054.34;5071927;28;20224;-73
2024/01/10 07:42:36;;;;;;;8.00;5.00;;;;;;;-1.48;43.69;96054.34;5085606;28;20406;-76
2024/01/10 07:45:06;;;;;;;11.67;4.80;;;;;;;-1.21;43.37;96062.84;5073860;28;20240;-76
2024/01/10 07:47:38;;;;;;;5.73;4.47;;;;;;;-1.25;43.57;96058.72;5054973;28;20240;-76
2024/01/10 07:50:06;;;;;;;8.10;4.17;;;;;;;-1.20;43.20;96059.41;5073791;28;20184;-75
2024/01/10 07:52:32;;;;;;;7.47;4.20;;;;;;;-1.11;43.73;96066.78;5056003;28;20235;-79
2024/01/10 07:54:57;;;;;;;8.17;4.03;;;;;;;-1.01;43.65;96062.16;5074327;28;20218;-81
2024/01/10 07:57:23;;;;;;;8.03;4.47;;;;;;;-1.20;43.07;96066.31;5078345;28;20231;-75
2024/01/10 07:59:48;;;;;;;7.30;3.67;;;;;;;-1.01;43.01;96061.31;5072725;28;20228;-76
2024/01/10 08:02:14;;;;;;;7.93;4.40;;;;;;;-1.23;43.21;96062.09;5069360;28;20184;-71
2024/01/10 08:04:39;;;;;;;6.40;4.13;;;;;;;-1.08;43.17;96060.69;5070892;28;20200;-70
2024/01/10 08:07:05;;;;;;;4.93;3.50;;;;;;;-0.90;43.47;96054.00;5067984;28;20220;-70
2024/01/10 08:09:30;;;;;;;4.77;3.13;;;;;;;-0.72;41.33;96060.22;5067430;28;20224;-74
2024/01/10 08:11:56;;;;;;;6.63;3.30;;;;;;;-1.08;41.98;96065.84;5070714;28;20234;-74
2024/01/10 08:14:21;;;;;;;5.57;3.27;;;;;;;-1.15;42.68;96072.09;5070369;28;20280;-72
2024/01/10 08:16:47;;;;;;;8.23;3.60;;;;;;;-1.21;42.83;96065.44;5070940;28;20169;-73
2024/01/10 08:19:12;;;;;;;7.17;3.07;;;;;;;-1.44;42.92;96071.41;5069537;28;20216;-76
2024/01/10 08:21:37;;;;;;;7.40;2.90;;;;;;;-1.40;42.19;96070.41;5070048;28;20224;-72
2024/01/10 08:24:10;;;;;;;4.27;2.80;;;;;;;-1.31;42.53;96076.13;5071067;28;20225;-70
2024/01/10 08:26:37;;;;;;;4.87;3.23;;;;;;;-1.22;42.58;96070.66;5072012;28;20217;-74
2024/01/10 08:29:03;;;;;;;4.23;3.00;;;;;;;-1.01;42.50;96072.47;5069628;28;20197;-72
2024/01/10 08:31:29;;;;;;;5.50;2.73;;;;;;;-0.99;42.11;96070.69;5071769;28;20229;-77
2024/01/10 08:33:54;;;;;;;4.13;2.50;;;;;;;-1.04;41.64;96080.34;5072202;28;20216;-77
2024/01/10 08:36:20;;;;;;;3.40;2.70;;;;;;;-1.09;42.64;96071.91;5071204;28;20215;-77
2024/01/10 08:38:45;;;;;;;4.00;2.20;;;;;;;-1.28;42.92;96078.59;5073941;28;20235;-78
2024/01/10 08:41:12;;;;;;;4.60;2.57;;;;;;;-1.01;42.33;96076.78;5068837;28;20180;-78
2024/01/10 08:43:38;;;;;;;2.60;2.40;;;;;;;-1.03;41.75;96065.69;5071679;28;20197;-77
2024/01/10 08:46:04;;;;;;;3.20;2.40;;;;;;;-1.29;42.30;96067.44;5076271;28;20225;-82
2024/01/10 08:48:29;;;;;;;3.37;2.53;;;;;;;-1.23;42.32;96074.13;5072065;28;20303;-75
2024/01/10 08:50:56;;;;;;;6.50;4.83;;;;;;;-0.88;42.31;96072.88;5072102;28;20212;-75
2024/01/10 08:53:22;;;;;;;4.10;2.50;;;;;;;-1.19;42.30;96078.28;5071009;28;20176;-76
2024/01/10 08:55:48;;;;;;;3.63;2.77;;;;;;;-1.08;42.66;96076.16;5070785;28;20184;-72
2024/01/10 08:58:13;;;;;;;3.63;2.70;;;;;;;-0.98;41.68;96067.19;5069440;28;20221;-78
2024/01/10 09:00:39;;;;;;;4.33;2.60;;;;;;;-1.04;42.70;96075.16;5070642;28;20266;-75
2024/01/10 09:03:04;;;;;;;4.70;3.57;;;;;;;-0.96;42.96;96064.56;5074875;28;20239;-74
2024/01/10 09:05:30;;;;;;;4.83;3.40;;;;;;;-0.71;43.07;96059.31;5072462;28;20235;-74
2024/01/10 09:07:55;;;;;;;5.23;3.10;;;;;;;-0.95;43.46;96061.06;5078354;28;20246;-73
2024/01/10 09:10:24;;;;;;;4.87;3.30;;;;;;;-0.81;43.85;96060.56;5069627;28;20220;-73
2024/01/10 09:12:49;;;;;;;4.77;2.73;;;;;;;-1.12;44.38;96070.28;5070650;28;20224;-75
2024/01/10 09:15:15;;;;;;;5.63;3.47;;;;;;;-0.88;44.24;96057.38;5072923;28;20220;-80
2024/01/10 09:17:44;;;;;;;4.50;3.23;;;;;;;-0.79;43.34;96056.19;5054347;28;20216;-75
2024/01/10 09:20:10;;;;;;;4.63;3.40;;;;;;;-0.53;43.24;96068.13;5071375;28;20201;-77
2024/01/10 09:22:37;;;;;;;8.20;3.70;;;;;;;-0.54;42.84;96066.41;5067426;28;20239;-76
2024/01/10 09:25:06;;;;;;;6.13;3.80;;;;;;;-0.50;43.05;96065.41;5068593;28;20308;-72
2024/01/10 09:27:35;;;;;;;6.53;3.97;;;;;;;-0.48;42.40;96067.03;5066673;28;20216;-73
2024/01/10 09:30:02;;;;;;;5.00;3.57;;;;;;;-0.40;41.96;96064.16;5065589;28;20224;-73
2024/01/10 09:32:31;;;;;;;8.50;4.73;;;;;;;-0.43;42.50;96059.09;5072734;28;20181;-73
2024/01/10 09:34:58;;;;;;;5.87;4.00;;;;;;;-0.11;43.29;96060.41;5069466;28;20177;-74
2024/01/10 09:37:23;;;;;;;8.63;4.50;;;;;;;0.19;42.36;96060.91;5071870;28;20221;-74
2024/01/10 09:39:49;;;;;;;6.17;4.23;;;;;;;0.01;42.00;96061.66;5072601;28;20224;-74
2024/01/10 09:42:14;;;;;;;5.83;4.20;;;;;;;-0.14;42.56;96045.00;5072489;28;20217;-71
2024/01/10 09:44:41;;;;;;;12.83;4.80;;;;;;;0.08;42.16;96055.34;5072137;28;20231;-72
2024/01/10 09:47:07;;;;;;;5.10;4.10;;;;;;;-0.12;41.18;96045.81;5073131;28;20195;-72
2024/01/10 09:49:33;;;;;;;8.13;4.50;;;;;;;-0.18;42.74;96047.81;5073012;28;20332;-75
2024/01/10 09:52:01;;;;;;;6.40;5.37;;;;;;;-0.01;41.79;96048.78;5074233;28;20290;-71
2024/01/10 09:54:29;;;;;;;5.40;4.17;;;;;;;-0.01;41.77;96046.19;5070166;28;20300;-73
2024/01/10 09:56:55;;;;;;;8.43;4.30;;;;;;;-0.06;41.63;96049.88;5075642;28;20247;-72
2024/01/10 09:59:21;;;;;;;8.47;4.70;;;;;;;-0.27;41.85;96038.66;5070362;28;20181;-75
2024/01/10 10:01:46;;;;;;;5.27;4.10;;;;;;;-0.07;41.68;96041.28;5083523;28;20219;-84
2024/01/10 10:04:13;;;;;;;5.87;4.03;;;;;;;0.19;41.42;96039.38;5081343;28;20229;-85
2024/01/10 10:06:38;;;;;;;7.37;4.63;;;;;;;0.05;42.93;96033.94;5076948;28;20229;-73
2024/01/10 10:09:04;;;;;;;8.50;5.60;;;;;;;0.24;43.14;96029.66;5075549;28;20278;-77
2024/01/10 10:11:30;;;;;;;9.47;5.17;;;;;;;0.53;43.44;96025.84;5076230;28;20232;-77
2024/01/10 10:13:55;;;;;;;7.63;4.97;;;;;;;0.53;43.41;96018.06;5075953;28;20181;-80
2024/01/10 10:16:25;;;;;;;6.83;4.53;;;;;;;0.70;42.96;96016.53;5075596;28;20212;-79
2024/01/10 10:18:57;;;;;;;8.23;5.67;;;;;;;0.92;43.82;96012.06;5070817;28;20227;-79
2024/01/10 10:21:25;;;;;;;12.87;6.00;;;;;;;0.88;43.15;96006.19;5078778;28;20301;-76
2024/01/10 10:23:58;;;;;;;6.97;4.73;;;;;;;1.20;43.18;95996.09;5092332;28;20232;-79
2024/01/10 10:26:27;;;;;;;7.73;5.07;;;;;;;1.17;42.51;95998.00;5075532;28;20265;-78
2024/01/10 10:28:52;;;;;;;10.17;5.73;;;;;;;1.45;42.71;96000.16;5075825;28;20264;-78
2024/01/10 10:31:19;;;;;;;7.83;5.43;;;;;;;1.56;42.85;95994.47;5071969;28;20351;-79
2024/01/10 10:33:57;;;;;;;6.53;5.17;;;;;;;1.71;43.73;95983.34;5069036;28;20234;-74
2024/01/10 10:36:22;;;;;;;8.10;5.57;;;;;;;1.75;44.55;95990.91;5070719;28;20359;-73
2024/01/10 10:38:48;;;;;;;7.27;5.53;;;;;;;1.93;43.26;95983.97;5068978;28;20308;-72
2024/01/10 10:41:14;;;;;;;10.13;6.10;;;;;;;2.02;42.47;95974.91;5070277;28;20192;-73
2024/01/10 10:43:40;;;;;;;8.83;6.00;;;;;;;1.99;41.19;95975.06;5073974;28;20212;-70
2024/01/10 10:46:09;;;;;;;7.67;5.67;;;;;;;2.01;43.39;95975.81;5069629;28;20216;-74
2024/01/10 10:48:35;;;;;;;9.77;6.00;;;;;;;2.17;40.31;95966.34;5070757;28;20293;-73
2024/01/10 10:51:07;;;;;;;8.40;5.70;;;;;;;1.99;41.63;95967.28;5069849;28;20216;-74
2024/01/10 10:53:35;;;;;;;10.90;6.07;;;;;;;2.09;41.97;95958.13;5072736;28;20224;-72
2024/01/10 10:56:03;;;;;;;9.60;5.60;;;;;;;2.35;42.81;95953.34;5069754;28;20185;-71
2024/01/10 10:58:38;;;;;;;10.97;6.83;;;;;;;2.50;41.46;95949.13;5086497;28;20373;-73
2024/01/10 11:01:08;;;;;;;16.53;7.43;;;;;;;2.55;43.70;95947.97;5068521;28;20212;-71
2024/01/10 11:03:36;;;;;;;6.83;6.03;;;;;;;2.60;41.35;95948.56;5067681;28;20217;-72
2024/01/10 11:06:03;;;;;;;9.47;6.10;;;;;;;2.37;41.79;95946.31;5068374;28;20208;-71
2024/01/10 11:08:33;;;;;;;10.53;7.60;;;;;;;2.40;42.81;95933.19;5068485;28;20197;-72
2024/01/10 11:11:02;;;;;;;13.13;7.37;;;;;;;2.38;42.41;95946.25;5067510;28;20177;-73
2024/01/10 11:14:23;;;;;;;9.23;7.17;;;;;;;2.45;43.14;95930.34;5069612;28;20216;-73
2024/01/10 11:17:17;;;;;;;12.17;7.50;;;;;;;2.35;42.05;95922.19;4953735;28;20253;-73
2024/01/10 11:20:05;;;;;;;11.23;6.77;;;;;;;2.11;40.92;95932.94;4969580;28;20282;-71
2024/01/10 11:22:57;;;;;;;9.10;6.70;;;;;;;1.69;42.57;95936.75;4967072;28;20244;-70
2024/01/10 11:25:23;;;;;;;11.47;7.37;;;;;;;1.83;43.81;95924.88;4968996;28;20290;-69
2024/01/10 11:27:54;;;;;;;12.23;7.37;;;;;;;2.07;42.33;95915.84;4947746;28;20220;-69
2024/01/10 11:30:39;;;;;;;11.17;7.23;;;;;;;2.25;43.33;95929.63;4952147;28;20230;-74
2024/01/10 11:33:33;;;;;;;11.43;7.77;;;;;;;2.42;42.21;95915.78;4954360;28;20307;-82